Time;durP1;ratioP1;P1;durP2;ratioP2;P2;SDS_P1;SDS_P2;PMS_P1;PMS_P2;Temp;Humidity;BMP_temperature;BMP_pressure;BME280_temperature;BME280_humidity;BME280_pressure;Samples;Min_cycle;Max_cycle;Signal;HPM_P1;HPM_P2
2022/06/28 00:01:33;;;;;;;1.77;1.67;;;;;;;19.03;75.72;98547.38;4994012;28;20080;-85
2022/06/28 00:03:59;;;;;;;2.05;1.90;;;;;;;18.93;75.01;98527.53;4992543;28;20149;-83
2022/06/28 00:06:24;;;;;;;2.28;2.08;;;;;;;19.03;75.10;98544.72;4992424;28;20034;-84
2022/06/28 00:08:50;;;;;;;2.92;2.70;;;;;;;18.81;74.96;98550.75;4994207;28;20072;-85
2022/06/28 00:11:15;;;;;;;2.45;1.90;;;;;;;18.76;75.59;98542.69;4990334;28;20028;-89
2022/06/28 00:13:41;;;;;;;2.22;1.70;;;;;;;18.84;75.40;98539.66;4994433;28;20497;-84
2022/06/28 00:16:06;;;;;;;1.70;1.60;;;;;;;18.93;75.11;98554.13;4984504;28;20035;-85
2022/06/28 00:18:39;;;;;;;2.17;1.98;;;;;;;18.96;74.96;98560.81;4983171;28;20030;-84
2022/06/28 00:21:07;;;;;;;2.08;1.77;;;;;;;19.02;75.96;98559.06;4991257;28;20038;-88
2022/06/28 00:23:38;;;;;;;1.55;1.45;;;;;;;19.07;75.90;98543.16;4993811;28;20401;-89
2022/06/28 00:26:07;;;;;;;1.40;1.30;;;;;;;19.17;75.73;98554.75;5009321;28;20042;-88
2022/06/28 00:28:33;;;;;;;1.60;1.50;;;;;;;19.10;75.11;98550.66;4993854;28;20034;-88
2022/06/28 00:30:58;;;;;;;2.55;1.90;;;;;;;18.99;75.23;98553.16;5009099;28;20493;-88
2022/06/28 00:33:24;;;;;;;1.50;1.40;;;;;;;18.95;75.39;98552.06;4973137;28;20035;-89
2022/06/28 00:35:50;;;;;;;1.52;1.42;;;;;;;19.01;76.23;98546.78;4976972;28;20034;-89
2022/06/28 00:38:16;;;;;;;1.15;1.13;;;;;;;19.01;75.82;98539.63;4992069;28;20425;-88
2022/06/28 00:40:51;;;;;;;1.80;1.70;;;;;;;18.94;75.56;98538.97;4995149;28;20045;-88
2022/06/28 00:43:19;;;;;;;2.42;2.00;;;;;;;18.95;75.34;98546.75;4992393;28;20034;-88
2022/06/28 00:45:46;;;;;;;2.13;1.83;;;;;;;18.64;75.71;98537.41;4983792;28;20039;-88
2022/06/28 00:48:15;;;;;;;1.95;1.83;;;;;;;18.66;76.05;98545.16;4993821;28;20224;-89
2022/06/28 00:50:42;;;;;;;2.17;1.70;;;;;;;18.68;76.03;98543.09;4993099;28;20530;-87
2022/06/28 00:53:13;;;;;;;2.92;2.38;;;;;;;18.67;75.52;98544.97;4976724;28;20117;-88
2022/06/28 00:55:39;;;;;;;2.47;1.95;;;;;;;18.51;75.97;98537.72;4992269;28;20026;-84
2022/06/28 00:58:05;;;;;;;2.33;2.13;;;;;;;18.48;76.57;98548.06;4992621;28;20038;-85
2022/06/28 01:00:37;;;;;;;2.35;2.15;;;;;;;18.29;76.48;98558.06;4990601;28;20125;-88
2022/06/28 01:03:04;;;;;;;2.17;2.00;;;;;;;18.36;75.94;98567.50;4991305;28;20030;-87
2022/06/28 01:05:30;;;;;;;2.20;2.00;;;;;;;18.40;75.92;98571.28;4994483;28;20034;-86
2022/06/28 01:07:56;;;;;;;2.45;2.25;;;;;;;18.40;76.01;98560.66;4994142;28;20034;-90
2022/06/28 01:10:23;;;;;;;1.80;1.70;;;;;;;18.37;76.06;98555.84;4992238;28;20088;-88
2022/06/28 01:13:09;;;;;;;1.40;1.30;;;;;;;18.55;76.84;98562.78;4993531;28;20045;-87
2022/06/28 01:15:54;;;;;;;2.05;1.50;;;;;;;18.49;76.76;98563.75;5007525;28;20115;-88
2022/06/28 01:18:20;;;;;;;1.42;1.27;;;;;;;18.60;77.00;98581.47;5007850;28;20061;-87
2022/06/28 01:20:46;;;;;;;1.13;1.00;;;;;;;18.68;76.38;98574.97;4992408;28;20037;-88
2022/06/28 01:23:16;;;;;;;1.50;1.40;;;;;;;18.63;76.49;98580.97;4992628;28;20371;-87
2022/06/28 01:25:44;;;;;;;0.98;0.98;;;;;;;18.73;77.04;98591.00;4992819;28;20050;-88
2022/06/28 01:28:10;;;;;;;0.75;0.75;;;;;;;18.68;76.54;98585.59;4991377;28;20034;-88
2022/06/28 01:30:36;;;;;;;1.02;1.00;;;;;;;18.78;77.01;98608.91;4993864;28;20030;-89
2022/06/28 01:33:03;;;;;;;1.00;0.95;;;;;;;18.80;76.61;98604.94;4992703;28;20506;-88
2022/06/28 01:35:29;;;;;;;1.10;1.00;;;;;;;18.86;76.51;98611.97;4993187;28;20108;-89
2022/06/28 01:37:57;;;;;;;0.90;0.90;;;;;;;18.89;76.56;98606.19;5004818;28;20621;-89
2022/06/28 01:40:24;;;;;;;0.90;0.90;;;;;;;18.96;75.80;98612.13;4957088;28;20038;-88
2022/06/28 01:42:49;;;;;;;1.13;1.02;;;;;;;18.86;76.24;98601.31;5000290;28;20172;-88
2022/06/28 01:45:15;;;;;;;1.40;1.30;;;;;;;18.82;76.12;98610.81;4991943;28;20509;-88
2022/06/28 01:47:44;;;;;;;1.30;1.20;;;;;;;18.84;76.40;98613.25;4991796;28;20031;-88
2022/06/28 01:50:11;;;;;;;1.40;1.30;;;;;;;18.74;76.51;98602.44;5007988;28;20034;-88
2022/06/28 01:52:41;;;;;;;1.00;1.00;;;;;;;18.76;75.49;98598.50;4992816;28;20036;-88
2022/06/28 01:55:07;;;;;;;1.05;1.05;;;;;;;18.79;76.34;98608.66;4992064;28;20045;-88
2022/06/28 01:57:33;;;;;;;0.90;0.90;;;;;;;18.90;76.30;98609.63;4976516;28;20049;-87
2022/06/28 01:59:59;;;;;;;1.02;1.02;;;;;;;18.88;76.01;98604.53;4974283;28;20497;-88
2022/06/28 02:02:24;;;;;;;0.90;0.90;;;;;;;18.75;76.41;98596.88;5007214;28;20488;-88
2022/06/28 02:04:50;;;;;;;1.33;1.23;;;;;;;18.77;75.80;98612.56;4992399;28;20030;-89
2022/06/28 02:07:15;;;;;;;1.63;1.52;;;;;;;18.68;75.78;98612.19;4990880;28;20513;-88
2022/06/28 02:09:41;;;;;;;1.67;1.55;;;;;;;18.61;76.27;98608.84;4989708;28;20038;-89
2022/06/28 02:12:28;;;;;;;1.38;1.27;;;;;;;18.59;76.78;98605.59;4993447;28;20694;-88
2022/06/28 02:15:13;;;;;;;1.92;1.60;;;;;;;18.52;76.78;98604.94;4992599;28;20052;-89
2022/06/28 02:17:59;;;;;;;2.00;1.90;;;;;;;18.40;76.30;98618.28;4990596;28;20035;-89
2022/06/28 02:20:24;;;;;;;;;;;;;;;18.31;77.23;98617.06;4974610;28;20066;-88
2022/06/28 02:22:49;;;;;;;1.80;1.70;;;;;;;18.18;77.70;98604.88;4991610;28;19940;-88
2022/06/28 02:25:17;;;;;;;1.48;1.20;;;;;;;18.25;78.20;98616.16;4992247;28;20045;-88
2022/06/28 02:27:43;;;;;;;1.20;1.17;;;;;;;18.30;77.91;98610.94;4990757;28;20034;-89
2022/06/28 02:30:10;;;;;;;1.98;1.88;;;;;;;18.13;77.67;98618.03;4990744;28;20034;-89
2022/06/28 02:32:36;;;;;;;1.50;1.40;;;;;;;18.08;78.32;98604.66;4974292;28;20042;-89
2022/06/28 02:40:30;;;;;;;1.30;1.20;;;;;;;18.15;78.41;98589.38;4990083;28;20038;-88
2022/06/28 02:42:59;;;;;;;1.40;1.30;;;;;;;18.21;78.32;98606.22;4974074;28;20034;-88
2022/06/28 02:45:30;;;;;;;2.70;2.50;;;;;;;17.96;78.16;98601.22;4992281;28;20571;-89
2022/06/28 02:47:57;;;;;;;1.98;1.48;;;;;;;17.96;78.59;98601.22;4991522;28;20030;-88
2022/06/28 02:50:23;;;;;;;1.63;1.52;;;;;;;17.99;78.94;98601.53;4990778;28;20057;-89
2022/06/28 02:52:49;;;;;;;2.72;2.53;;;;;;;17.77;78.99;98585.47;4970655;28;20495;-89
2022/06/28 02:55:15;;;;;;;2.70;2.50;;;;;;;17.78;79.31;98594.22;4981073;28;20041;-89
2022/06/28 02:57:41;;;;;;;2.35;2.15;;;;;;;17.70;79.52;98599.88;4991256;28;20042;-89
2022/06/28 03:00:13;;;;;;;2.38;2.17;;;;;;;17.69;79.48;98590.28;4989787;28;20536;-89
2022/06/28 03:02:40;;;;;;;2.00;1.90;;;;;;;17.69;80.09;98601.69;4991231;28;20038;-90
2022/06/28 03:05:13;;;;;;;2.38;2.17;;;;;;;17.57;80.23;98598.25;4973617;28;20035;-90
2022/06/28 03:07:40;;;;;;;1.70;1.60;;;;;;;17.63;80.82;98592.00;4974057;28;20039;-90
2022/06/28 03:10:07;;;;;;;1.80;1.50;;;;;;;17.76;80.26;98596.31;5003408;28;20034;-90
2022/06/28 03:12:45;;;;;;;2.72;2.45;;;;;;;17.62;79.96;98590.41;4991934;28;20057;-90
2022/06/28 03:15:13;;;;;;;1.88;1.70;;;;;;;17.61;80.22;98580.84;4990938;28;20105;-88
2022/06/28 03:17:41;;;;;;;1.60;1.50;;;;;;;17.71;79.98;98594.34;4989937;28;20044;-89
2022/06/28 03:20:07;;;;;;;2.35;1.48;;;;;;;17.67;80.66;98579.91;4986453;28;20035;-89
2022/06/28 03:22:32;;;;;;;1.60;1.30;;;;;;;17.70;80.47;98586.59;4984299;28;20430;-89
2022/06/28 03:24:58;;;;;;;1.40;1.30;;;;;;;17.75;79.83;98600.00;4990657;28;20065;-89
2022/06/28 03:27:23;;;;;;;1.50;1.40;;;;;;;17.78;80.15;98605.66;4991287;28;20441;-89
2022/06/28 03:29:51;;;;;;;1.75;1.65;;;;;;;17.71;80.02;98609.44;4989474;28;20397;-89
2022/06/28 03:32:17;;;;;;;2.50;2.30;;;;;;;17.61;80.45;98612.66;4973387;28;20130;-90
2022/06/28 03:34:43;;;;;;;3.10;2.20;;;;;;;17.57;80.98;98608.84;5006488;28;20038;-89
2022/06/28 03:37:08;;;;;;;3.85;3.00;;;;;;;17.50;80.93;98613.47;4990088;28;20033;-88
2022/06/28 03:39:34;;;;;;;2.38;2.10;;;;;;;17.55;81.08;98616.25;4991033;28;20084;-89
2022/06/28 03:42:00;;;;;;;2.72;1.80;;;;;;;17.50;81.46;98613.47;4989309;28;20042;-90
2022/06/28 03:44:25;;;;;;;1.70;1.60;;;;;;;17.49;81.25;98609.22;5006606;28;20525;-90
2022/06/28 03:46:51;;;;;;;1.60;1.50;;;;;;;17.56;81.13;98607.25;4973662;28;20027;-89
2022/06/28 03:49:16;;;;;;;1.67;1.58;;;;;;;17.52;81.30;98606.13;4989480;28;20113;-89
2022/06/28 03:51:42;;;;;;;2.80;2.13;;;;;;;17.50;80.46;98616.94;4994576;28;20041;-89
2022/06/28 03:54:07;;;;;;;1.80;1.67;;;;;;;17.53;80.50;98615.69;4993391;28;20031;-90
2022/06/28 03:56:33;;;;;;;1.55;1.45;;;;;;;17.49;80.93;98612.69;4977460;28;20045;-90
2022/06/28 03:58:58;;;;;;;2.40;1.90;;;;;;;17.49;80.75;98614.53;4994731;28;20069;-90
2022/06/28 04:01:24;;;;;;;4.25;2.97;;;;;;;17.33;80.81;98608.88;4994827;28;20038;-90
2022/06/28 04:03:49;;;;;;;2.50;2.30;;;;;;;17.33;81.11;98616.00;4976848;28;20034;-89
2022/06/28 04:06:15;;;;;;;1.90;1.80;;;;;;;17.31;81.63;98616.25;4995222;28;20038;-90
2022/06/28 04:08:40;;;;;;;2.20;1.90;;;;;;;17.34;80.69;98626.41;4994098;28;20049;-89
2022/06/28 04:11:15;;;;;;;2.30;2.10;;;;;;;17.30;81.13;98627.91;5006374;28;20490;-90
2022/06/28 04:13:53;;;;;;;1.95;1.83;;;;;;;17.26;81.53;98623.28;5009296;28;20038;-90
2022/06/28 04:16:21;;;;;;;1.80;1.70;;;;;;;17.30;81.73;98635.84;5012324;28;20121;-89
2022/06/28 04:18:49;;;;;;;1.90;1.80;;;;;;;17.34;81.91;98641.50;5000281;28;20031;-90
2022/06/28 04:21:17;;;;;;;1.90;1.80;;;;;;;17.38;80.88;98640.78;4981808;28;20039;-90
2022/06/28 04:23:43;;;;;;;1.65;1.55;;;;;;;17.36;81.08;98645.53;4996483;28;20137;-88
2022/06/28 04:26:09;;;;;;;2.53;2.05;;;;;;;17.42;80.96;98654.41;5001580;28;20038;-90
2022/06/28 04:28:35;;;;;;;1.85;1.75;;;;;;;17.50;81.09;98666.50;4992473;28;20030;-90
2022/06/28 04:31:02;;;;;;;1.70;1.60;;;;;;;17.54;80.97;98657.88;4992802;28;20053;-89
2022/06/28 04:33:28;;;;;;;1.90;1.80;;;;;;;17.38;80.99;98648.75;4994557;28;20050;-90
2022/06/28 04:35:55;;;;;;;2.40;2.05;;;;;;;17.46;80.70;98666.19;5009301;28;20561;-90
2022/06/28 04:38:21;;;;;;;3.28;1.67;;;;;;;17.52;81.32;98661.81;4993024;28;20056;-90
2022/06/28 04:40:47;;;;;;;2.22;2.03;;;;;;;17.44;81.01;98646.22;4988353;28;20035;-89
2022/06/28 04:43:13;;;;;;;1.42;1.33;;;;;;;17.60;81.30;98669.41;4997826;28;20026;-89
2022/06/28 04:45:38;;;;;;;2.10;2.00;;;;;;;17.58;80.85;98674.16;4972854;28;20506;-90
2022/06/28 04:48:04;;;;;;;2.35;2.20;;;;;;;17.56;80.62;98660.28;4974531;28;20030;-89
2022/06/28 04:50:30;;;;;;;3.95;2.10;;;;;;;17.53;80.58;98655.47;4990341;28;20113;-89
2022/06/28 04:52:56;;;;;;;3.15;2.90;;;;;;;17.47;80.47;98646.59;5008904;28;20052;-91
2022/06/28 04:55:22;;;;;;;2.63;2.42;;;;;;;17.50;80.30;98650.59;5010203;28;20554;-89
2022/06/28 04:57:47;;;;;;;3.03;2.55;;;;;;;17.62;80.53;98660.16;5008934;28;20034;-90
2022/06/28 05:00:14;;;;;;;1.75;1.60;;;;;;;17.68;80.80;98645.19;4991981;28;20030;-85
2022/06/28 05:02:41;;;;;;;1.40;1.30;;;;;;;17.82;80.98;98649.25;4992108;28;20490;-85
2022/06/28 05:05:09;;;;;;;1.85;1.75;;;;;;;17.94;79.86;98648.44;4992890;28;20066;-89
2022/06/28 05:07:35;;;;;;;2.83;1.83;;;;;;;17.92;79.92;98654.75;4992121;28;20085;-89
2022/06/28 05:10:03;;;;;;;2.78;1.80;;;;;;;18.07;78.94;98651.63;4972773;28;20050;-88
2022/06/28 05:12:47;;;;;;;2.63;2.42;;;;;;;17.93;78.94;98634.31;4977770;28;20026;-88
2022/06/28 05:15:12;;;;;;;2.85;2.30;;;;;;;17.93;78.90;98623.72;4990243;28;20049;-88
2022/06/28 05:17:38;;;;;;;2.10;1.90;;;;;;;18.11;79.63;98641.34;4993308;28;20069;-90
2022/06/28 05:20:05;;;;;;;2.88;2.60;;;;;;;18.05;78.57;98635.13;4992208;28;20042;-89
2022/06/28 05:22:30;;;;;;;2.85;2.00;;;;;;;18.21;78.61;98644.19;5007385;28;20041;-89
2022/06/28 05:24:56;;;;;;;2.10;1.90;;;;;;;18.36;76.33;98655.13;4992729;28;20034;-88
2022/06/28 05:27:21;;;;;;;1.50;1.40;;;;;;;18.48;77.44;98651.63;5008516;28;20060;-87
2022/06/28 05:29:47;;;;;;;1.50;1.40;;;;;;;18.70;77.28;98658.69;4991348;28;20037;-88
2022/06/28 05:32:13;;;;;;;1.80;1.70;;;;;;;18.68;74.39;98644.88;4992278;28;20652;-89
2022/06/28 05:34:38;;;;;;;1.85;1.63;;;;;;;18.73;73.79;98633.53;5007756;28;20058;-90
2022/06/28 05:37:06;;;;;;;2.17;1.73;;;;;;;18.88;73.90;98647.06;5009206;28;20072;-90
2022/06/28 05:39:32;;;;;;;2.13;1.92;;;;;;;18.86;73.62;98638.53;4993542;28;20486;-91
2022/06/28 05:41:58;;;;;;;1.90;1.80;;;;;;;18.99;73.24;98640.06;4976050;28;20054;-87
2022/06/28 05:44:24;;;;;;;1.95;1.85;;;;;;;19.19;72.67;98653.72;4992277;28;20045;-89
2022/06/28 05:46:50;;;;;;;2.47;2.28;;;;;;;19.19;71.77;98644.91;4976247;28;20029;-88
2022/06/28 05:49:16;;;;;;;1.83;1.50;;;;;;;19.37;72.32;98649.16;4982828;28;66790;-90
2022/06/28 05:51:41;;;;;;;1.92;1.70;;;;;;;19.49;71.29;98642.75;4988684;28;20026;-90
2022/06/28 05:54:07;;;;;;;1.60;1.50;;;;;;;19.78;72.40;98658.59;4974329;28;20477;-91
2022/06/28 05:56:35;;;;;;;2.35;1.70;;;;;;;19.73;69.86;98655.84;5008407;28;20053;-91
2022/06/28 05:59:01;;;;;;;1.52;1.40;;;;;;;20.06;70.16;98660.28;4987717;28;20070;-89
2022/06/28 06:01:26;;;;;;;1.88;1.60;;;;;;;19.97;69.59;98649.28;5010517;28;20124;-89
2022/06/28 06:03:55;;;;;;;1.63;1.52;;;;;;;20.14;70.22;98659.06;5004561;28;20034;-89
2022/06/28 06:06:22;;;;;;;1.50;1.40;;;;;;;20.38;69.33;98665.72;4973564;28;20045;-87
2022/06/28 06:08:48;;;;;;;1.67;1.58;;;;;;;20.29;67.13;98643.25;4991325;28;20038;-89
2022/06/28 06:11:13;;;;;;;1.98;1.75;;;;;;;20.52;67.91;98666.19;4992474;28;20545;-87
2022/06/28 06:13:39;;;;;;;1.65;1.55;;;;;;;20.49;68.10;98638.19;4988045;28;20405;-89
2022/06/28 06:16:05;;;;;;;1.60;1.50;;;;;;;20.71;67.24;98656.00;5009069;28;20034;-87
2022/06/28 06:18:30;;;;;;;1.98;1.55;;;;;;;20.76;65.72;98669.38;4987746;28;20038;-87
2022/06/28 06:20:56;;;;;;;1.80;1.50;;;;;;;20.87;66.53;98663.09;4988956;28;20049;-88
2022/06/28 06:23:22;;;;;;;1.83;1.73;;;;;;;20.86;65.12;98653.47;4987068;28;20518;-85
2022/06/28 06:25:47;;;;;;;1.65;1.55;;;;;;;20.93;65.70;98651.41;4988336;28;20044;-83
2022/06/28 06:28:13;;;;;;;1.60;1.50;;;;;;;21.00;65.80;98649.34;4987865;28;20042;-88
2022/06/28 06:30:39;;;;;;;1.95;1.85;;;;;;;21.06;63.91;98667.00;4989061;28;20096;-89
2022/06/28 06:33:05;;;;;;;2.42;1.60;;;;;;;21.17;64.48;98651.06;4986508;28;20034;-88
2022/06/28 06:35:31;;;;;;;2.05;1.80;;;;;;;21.29;63.29;98654.38;4986057;28;20045;-87
2022/06/28 06:38:06;;;;;;;1.50;1.40;;;;;;;21.44;64.23;98656.38;4988489;28;20051;-88
2022/06/28 06:40:31;;;;;;;1.95;1.70;;;;;;;21.30;60.50;98646.16;4971096;28;20041;-91
2022/06/28 06:42:57;;;;;;;1.80;1.40;;;;;;;21.48;62.76;98652.94;4990908;28;20065;-88
2022/06/28 06:45:24;;;;;;;1.73;1.63;;;;;;;21.71;61.48;98653.59;4987870;28;20113;-86
2022/06/28 06:47:50;;;;;;;1.50;1.40;;;;;;;21.79;61.33;98653.13;4991216;28;20109;-89
2022/06/28 06:50:16;;;;;;;1.80;1.40;;;;;;;21.86;60.51;98621.66;4987458;28;20093;-92
2022/06/28 06:52:43;;;;;;;1.73;1.63;;;;;;;21.96;60.28;98636.94;5003435;28;23174;-89
2022/06/28 06:55:09;;;;;;;1.70;1.60;;;;;;;22.04;60.51;98631.88;4986910;28;20512;-89
2022/06/28 06:57:38;;;;;;;1.25;1.17;;;;;;;22.07;60.08;98609.19;4988042;28;20101;-88
2022/06/28 07:00:05;;;;;;;1.52;1.42;;;;;;;22.35;61.04;98642.72;4987817;28;20038;-86
2022/06/28 07:02:32;;;;;;;1.20;1.10;;;;;;;22.41;61.00;98630.97;5018553;28;20158;-86
2022/06/28 07:04:57;;;;;;;1.30;1.20;;;;;;;22.60;60.14;98637.41;5002399;28;20513;-89
2022/06/28 07:07:23;;;;;;;1.20;1.10;;;;;;;22.74;57.92;98640.41;4986904;28;20062;-88
2022/06/28 07:09:52;;;;;;;1.30;1.20;;;;;;;22.83;59.80;98641.47;4984693;28;20060;-89
2022/06/28 07:12:36;;;;;;;1.25;1.15;;;;;;;22.85;57.11;98634.00;5000460;28;20108;-88
2022/06/28 07:15:05;;;;;;;1.30;1.20;;;;;;;22.82;56.44;98644.41;4987284;28;20735;-89
2022/06/28 07:17:33;;;;;;;1.48;1.23;;;;;;;22.83;56.59;98646.03;4976462;28;20034;-93
2022/06/28 07:19:59;;;;;;;1.20;1.20;;;;;;;23.00;57.65;98635.09;4990511;28;20049;-89
2022/06/28 07:22:37;;;;;;;;;;;;;;;;;;;;;
2022/06/28 07:25:05;;;;;;;1.85;1.33;;;;;;;23.28;58.11;98625.75;4991595;28;20110;-88
2022/06/28 07:27:31;;;;;;;1.48;1.30;;;;;;;23.25;56.55;98637.78;5006420;28;20038;-88
2022/06/28 07:29:57;;;;;;;1.25;1.23;;;;;;;23.30;55.10;98621.72;5000085;28;20383;-89
2022/06/28 07:32:22;;;;;;;1.08;1.08;;;;;;;23.49;54.54;98629.97;5006403;28;20030;-92
2022/06/28 07:34:48;;;;;;;1.70;1.25;;;;;;;23.68;55.86;98631.03;4990778;28;20503;-90
2022/06/28 07:37:14;;;;;;;1.10;1.10;;;;;;;23.67;56.15;98642.81;4990532;28;20545;-90
2022/06/28 07:39:39;;;;;;;1.40;1.30;;;;;;;23.63;54.04;98643.63;4988795;28;20121;-90
2022/06/28 07:42:05;;;;;;;1.60;1.50;;;;;;;23.64;53.80;98643.38;4994107;28;20038;-91
2022/06/28 07:44:31;;;;;;;1.67;1.50;;;;;;;23.40;51.96;98624.38;4973432;28;20069;-89
2022/06/28 07:46:57;;;;;;;1.25;1.15;;;;;;;23.79;55.27;98622.97;4989903;28;20570;-86
2022/06/28 07:52:33;;;;;;;1.17;1.08;;;;;;;23.92;52.29;98627.75;4994359;28;20122;-89
2022/06/28 07:54:55;;;;;;;1.27;1.17;;;;;;;24.25;50.52;98620.94;5020051;28;20041;-89
2022/06/28 07:57:20;;;;;;;1.38;1.27;;;;;;;24.27;50.80;98622.25;4991563;28;20030;-87
2022/06/28 07:59:46;;;;;;;1.13;1.02;;;;;;;24.40;51.18;98620.06;5008330;28;20038;-91
2022/06/28 08:02:12;;;;;;;1.10;1.10;;;;;;;24.24;49.47;98611.28;4992702;28;20482;-85
2022/06/28 08:04:37;;;;;;;1.45;1.35;;;;;;;24.21;47.58;98612.63;4994265;28;20046;-88
2022/06/28 08:07:03;;;;;;;0.80;0.80;;;;;;;24.34;46.64;98610.41;4994988;28;20038;-89
2022/06/28 08:09:29;;;;;;;1.23;1.13;;;;;;;24.42;46.59;98604.53;5005877;28;20137;-89
2022/06/28 08:12:13;;;;;;;1.10;1.10;;;;;;;24.49;46.44;98608.50;4993878;28;20114;-89
2022/06/28 08:14:56;;;;;;;0.90;0.82;;;;;;;24.47;47.32;98613.34;4991841;28;20172;-87
2022/06/28 08:17:41;;;;;;;1.15;1.00;;;;;;;24.36;46.34;98629.75;4993918;28;20110;-89
2022/06/28 08:20:26;;;;;;;1.33;1.20;;;;;;;24.25;47.43;98632.44;4992423;28;20097;-91
2022/06/28 08:22:51;;;;;;;1.20;1.08;;;;;;;24.09;48.48;98633.59;5018215;28;20380;-90
2022/06/28 08:25:17;;;;;;;1.10;1.00;;;;;;;24.19;47.54;98620.16;4988988;28;20097;-89
2022/06/28 08:27:43;;;;;;;1.00;1.00;;;;;;;24.26;46.17;98639.41;5005726;28;20084;-88
2022/06/28 08:30:09;;;;;;;1.20;1.10;;;;;;;24.16;46.37;98638.63;4993606;28;20146;-85
2022/06/28 08:32:34;;;;;;;1.42;1.33;;;;;;;24.06;43.63;98642.19;4993430;28;20501;-86
2022/06/28 08:35:00;;;;;;;1.33;1.20;;;;;;;24.09;45.11;98635.47;4993471;28;20039;-89
2022/06/28 08:37:25;;;;;;;1.00;1.00;;;;;;;24.53;45.28;98631.00;4992303;28;20142;-91
2022/06/28 08:39:51;;;;;;;1.08;1.00;;;;;;;24.78;44.62;98637.28;4976246;28;20077;-90
2022/06/28 08:42:26;;;;;;;1.95;1.00;;;;;;;24.78;44.49;98632.72;4974374;28;20516;-89
2022/06/28 08:44:58;;;;;;;1.20;1.10;;;;;;;24.77;43.21;98625.75;4986738;28;20320;-87
2022/06/28 08:47:26;;;;;;;1.00;1.00;;;;;;;24.69;45.57;98618.28;4991036;28;20046;-89
2022/06/28 08:50:03;;;;;;;0.98;0.98;;;;;;;24.78;45.46;98608.56;4990797;28;20057;-86
2022/06/28 08:52:35;;;;;;;1.05;1.05;;;;;;;24.94;44.02;98613.78;4990691;28;20050;-88
2022/06/28 08:55:01;;;;;;;0.90;0.90;;;;;;;25.17;43.38;98618.47;4992015;28;20733;-90
2022/06/28 08:57:30;;;;;;;1.10;1.00;;;;;;;25.25;42.84;98617.88;4991539;28;20026;-90
2022/06/28 08:59:57;;;;;;;0.95;0.95;;;;;;;25.26;42.56;98595.31;4977651;28;20069;-86
2022/06/28 09:02:23;;;;;;;1.10;1.00;;;;;;;25.27;41.85;98591.53;4992454;28;20034;-86
2022/06/28 09:04:51;;;;;;;1.05;1.05;;;;;;;25.28;42.78;98601.19;5004575;28;20039;-86
2022/06/28 09:07:17;;;;;;;1.63;1.10;;;;;;;25.29;41.54;98591.25;4989014;28;20069;-86
2022/06/28 09:09:43;;;;;;;1.13;1.10;;;;;;;25.31;42.07;98587.22;4989802;28;20647;-87
2022/06/28 09:12:27;;;;;;;1.77;1.20;;;;;;;25.45;43.16;98583.84;4992736;28;20417;-87
2022/06/28 09:15:05;;;;;;;1.17;1.10;;;;;;;25.54;41.88;98590.19;4991140;28;20950;-88
2022/06/28 09:17:33;;;;;;;0.90;0.90;;;;;;;25.78;43.78;98599.06;4993528;28;20103;-90
2022/06/28 09:20:02;;;;;;;1.10;1.10;;;;;;;25.56;40.90;98588.81;4977320;28;20042;-87
2022/06/28 09:22:37;;;;;;;1.38;1.13;;;;;;;25.94;41.40;98593.53;4990702;28;20034;-90
2022/06/28 09:25:11;;;;;;;1.30;1.20;;;;;;;25.66;41.02;98600.53;4986706;28;20498;-87
2022/06/28 09:27:41;;;;;;;2.05;1.10;;;;;;;25.69;43.22;98598.09;4991128;28;20030;-91
2022/06/28 09:30:13;;;;;;;1.48;1.27;;;;;;;25.71;42.95;98593.22;4982353;28;20328;-90
2022/06/28 09:32:40;;;;;;;1.77;1.27;;;;;;;25.84;43.46;98594.44;4991575;28;20549;-89
2022/06/28 09:35:11;;;;;;;1.15;0.98;;;;;;;26.04;43.99;98590.72;4983137;28;20034;-88
2022/06/28 09:37:47;;;;;;;1.60;1.50;;;;;;;26.14;41.82;98604.00;4990398;28;20050;-90
2022/06/28 09:40:31;;;;;;;1.73;1.30;;;;;;;26.38;42.23;98588.63;4998845;28;20029;-89
2022/06/28 09:43:15;;;;;;;1.30;1.20;;;;;;;26.34;41.22;98598.38;4991766;28;20034;-90
2022/06/28 09:45:50;;;;;;;0.90;0.90;;;;;;;26.44;42.25;98580.50;4974631;28;20104;-88
2022/06/28 09:48:21;;;;;;;1.25;1.23;;;;;;;26.53;40.06;98562.63;4992111;28;20045;-89
2022/06/28 09:50:57;;;;;;;1.40;1.30;;;;;;;26.57;41.26;98553.69;4991305;28;20073;-92
2022/06/28 09:53:25;;;;;;;1.10;1.10;;;;;;;26.67;41.44;98566.16;5006560;28;20041;-87
2022/06/28 09:55:53;;;;;;;1.08;1.00;;;;;;;26.82;40.27;98555.19;4991910;28;20394;-89
2022/06/28 09:58:20;;;;;;;0.95;0.95;;;;;;;26.71;43.47;98547.56;4990399;28;20058;-89
2022/06/28 10:00:46;;;;;;;1.20;1.10;;;;;;;26.70;42.24;98567.50;4991611;28;20055;-89
2022/06/28 10:03:12;;;;;;;1.52;1.40;;;;;;;26.21;40.65;98549.88;4990059;28;20167;-88
2022/06/28 10:05:38;;;;;;;1.10;1.10;;;;;;;26.06;43.57;98558.97;4989666;28;20066;-89
2022/06/28 10:08:06;;;;;;;0.98;0.98;;;;;;;25.92;43.66;98542.75;4991153;28;20042;-91
2022/06/28 10:10:33;;;;;;;1.88;1.70;;;;;;;25.70;41.08;98551.31;4986818;28;20084;-89
2022/06/28 10:16:41;;;;;;;1.40;1.30;;;;;;;25.51;41.99;98532.47;5002049;28;20128;-88
2022/06/28 10:19:11;;;;;;;1.48;1.20;;;;;;;25.49;43.75;98533.84;5007395;28;20038;-88
2022/06/28 10:21:54;;;;;;;1.52;1.42;;;;;;;25.39;41.04;98528.59;4989023;28;20112;-89
2022/06/28 10:24:59;;;;;;;1.42;1.10;;;;;;;25.49;41.13;98523.94;4985033;28;20046;-86
2022/06/28 10:27:48;;;;;;;1.53;1.10;;;;;;;25.47;42.30;98511.84;4979074;28;20034;-92
2022/06/28 10:30:14;;;;;;;1.20;1.10;;;;;;;25.68;42.40;98533.91;4988547;28;20035;-89
2022/06/28 10:33:06;;;;;;;1.92;0.93;;;;;;;25.71;44.12;98536.81;4990065;28;20501;-89
2022/06/28 10:35:31;;;;;;;1.08;1.00;;;;;;;25.82;46.09;98543.69;4986919;28;20045;-91
2022/06/28 10:38:09;;;;;;;1.20;1.10;;;;;;;25.87;45.20;98549.00;4988868;28;20030;-90
2022/06/28 10:40:47;;;;;;;1.65;1.00;;;;;;;25.70;40.58;98564.75;5009953;28;20038;-88
2022/06/28 10:43:26;;;;;;;0.80;0.80;;;;;;;25.95;41.23;98557.50;4974012;28;20034;-89
2022/06/28 10:46:00;;;;;;;0.93;0.90;;;;;;;25.96;36.89;98553.72;4990297;28;20113;-89
2022/06/28 10:48:30;;;;;;;0.80;0.80;;;;;;;25.80;40.71;98540.50;4982032;28;20069;-93
2022/06/28 10:51:03;;;;;;;0.70;0.70;;;;;;;25.86;39.04;98539.34;5007870;28;20026;-91
2022/06/28 10:54:05;;;;;;;0.73;0.73;;;;;;;25.69;42.10;98530.94;4981717;28;20045;-90
2022/06/28 10:56:36;;;;;;;0.70;0.70;;;;;;;25.71;42.01;98520.69;4969039;28;20077;-91
2022/06/28 10:59:07;;;;;;;0.73;0.70;;;;;;;26.10;46.11;98533.13;4977284;28;20022;-90
2022/06/28 11:01:39;;;;;;;1.35;0.60;;;;;;;26.22;40.38;98519.25;5008288;28;20042;-91
2022/06/28 11:04:19;;;;;;;3.30;0.70;;;;;;;26.48;40.20;98522.38;4993956;28;20030;-91
2022/06/28 11:06:58;;;;;;;0.70;0.70;;;;;;;26.68;37.58;98508.56;5012318;28;20034;-89
2022/06/28 11:09:44;;;;;;;0.90;0.70;;;;;;;26.89;38.47;98503.66;5007888;28;20038;-89
2022/06/28 11:12:31;;;;;;;1.33;0.50;;;;;;;27.08;37.34;98512.50;5006812;28;20096;-90
2022/06/28 11:15:36;;;;;;;0.68;0.65;;;;;;;27.07;35.45;98504.72;4994722;28;20041;-90
2022/06/28 11:18:02;;;;;;;0.70;0.70;;;;;;;27.18;37.42;98509.63;4974773;28;20554;-91
2022/06/28 11:20:30;;;;;;;0.93;0.70;;;;;;;27.11;34.96;98508.38;4990107;28;20101;-88
2022/06/28 11:22:57;;;;;;;1.00;0.90;;;;;;;27.01;34.59;98508.56;5024918;28;20054;-89
2022/06/28 11:27:19;;;;;;;0.80;0.80;;;;;;;27.13;37.73;98512.41;5009323;28;20030;-89
2022/06/28 11:28:11;;;;;;;0.77;0.77;;;;;;;27.15;38.45;98504.81;4998861;28;20045;-90
2022/06/28 11:30:42;;;;;;;0.60;0.60;;;;;;;27.43;37.10;98484.09;4994896;28;20389;-91
2022/06/28 11:33:10;;;;;;;0.60;0.60;;;;;;;27.65;37.45;98496.00;4995368;28;20034;-90
2022/06/28 11:35:36;;;;;;;1.58;0.90;;;;;;;27.68;34.70;98508.91;4994719;28;20031;-89
2022/06/28 11:38:06;;;;;;;1.20;1.10;;;;;;;27.38;36.29;98480.69;4992295;28;20033;-88
2022/06/28 11:40:51;;;;;;;0.90;0.90;;;;;;;27.38;35.42;98470.72;4993636;28;20031;-89
2022/06/28 11:43:28;;;;;;;0.80;0.80;;;;;;;27.24;34.54;98480.69;5008998;28;20683;-88
2022/06/28 11:45:55;;;;;;;1.58;1.10;;;;;;;27.04;34.13;98486.44;4993339;28;20066;-90
2022/06/28 11:48:31;;;;;;;1.02;0.80;;;;;;;27.03;35.51;98469.47;5005678;28;20053;-89
2022/06/28 11:50:59;;;;;;;0.65;0.65;;;;;;;27.34;36.33;98479.69;4994148;28;20022;-89
2022/06/28 11:53:27;;;;;;;0.77;0.77;;;;;;;27.30;37.14;98466.03;5009562;28;20026;-91
2022/06/28 11:55:58;;;;;;;1.17;0.90;;;;;;;27.21;36.88;98457.84;5007821;28;20121;-91